Time;durP1;ratioP1;P1;durP2;ratioP2;P2;SDS_P1;SDS_P2;PMS_P1;PMS_P2;Temp;Humidity;BMP_temperature;BMP_pressure;BME280_temperature;BME280_humidity;BME280_pressure;Samples;Min_cycle;Max_cycle;Signal;HPM_P1;HPM_P2
2024/03/31 00:01:42;;;;;;;14.50;7.72;;;;;;;;;;6168053;28;20054;-87
2024/03/31 00:04:48;;;;;;;18.10;9.13;;;;;;;;;;6185646;28;20046;-86
2024/03/31 00:07:48;;;;;;;19.65;8.50;;;;;;;;;;6164608;28;20051;-86
2024/03/31 00:11:00;;;;;;;24.67;10.38;;;;;;;;;;6168943;28;20045;-86
2024/03/31 00:14:01;;;;;;;20.17;11.10;;;;;;;;;;6167295;28;20207;-86
2024/03/31 00:17:02;;;;;;;22.00;12.88;;;;;;;;;;6176042;28;20058;-86
2024/03/31 00:20:03;;;;;;;19.58;9.48;;;;;;;;;;6165426;28;20154;-86
2024/03/31 00:23:04;;;;;;;27.75;9.65;;;;;;;;;;6169120;28;20038;-86
2024/03/31 00:26:04;;;;;;;38.42;16.90;;;;;;;;;;6160827;28;20578;-86
2024/03/31 00:29:05;;;;;;;37.30;18.08;;;;;;;;;;6158195;28;20050;-87
2024/03/31 00:32:06;;;;;;;44.17;20.13;;;;;;;;;;6153203;28;20039;-86
2024/03/31 00:35:07;;;;;;;38.28;16.33;;;;;;;;;;6153448;28;20423;-86
2024/03/31 00:38:08;;;;;;;22.73;11.45;;;;;;;;;;6155234;28;20042;-87
2024/03/31 00:41:09;;;;;;;22.52;10.10;;;;;;;;;;6169946;28;20047;-86
2024/03/31 00:44:10;;;;;;;25.17;12.15;;;;;;;;;;6162424;28;20055;-86
2024/03/31 00:47:11;;;;;;;23.83;11.35;;;;;;;;;;6178677;28;20046;-86
2024/03/31 00:50:11;;;;;;;22.35;11.40;;;;;;;;;;6150603;28;20073;-86
2024/03/31 00:53:12;;;;;;;25.20;11.18;;;;;;;;;;6166434;28;20476;-88
2024/03/31 00:56:14;;;;;;;23.02;10.68;;;;;;;;;;6175107;28;20129;-87
2024/03/31 00:59:15;;;;;;;22.95;11.48;;;;;;;;;;6166906;28;20043;-86
2024/03/31 01:02:15;;;;;;;22.90;9.95;;;;;;;;;;6157777;28;20050;-87
2024/03/31 01:05:16;;;;;;;22.98;11.48;;;;;;;;;;6169091;28;20112;-86
2024/03/31 01:08:17;;;;;;;25.40;10.85;;;;;;;;;;6196573;28;20037;-85
2024/03/31 01:11:18;;;;;;;33.95;11.88;;;;;;;;;;6173982;28;20049;-85
2024/03/31 01:14:19;;;;;;;28.20;11.27;;;;;;;;;;6153636;28;20044;-85
2024/03/31 01:17:20;;;;;;;25.75;12.27;;;;;;;;;;6171435;28;20050;-86
2024/03/31 01:20:21;;;;;;;28.15;10.88;;;;;;;;;;6183490;28;20034;-89
2024/03/31 01:23:25;;;;;;;26.55;11.15;;;;;;;;;;6178733;28;20116;-88
2024/03/31 01:26:27;;;;;;;26.27;10.98;;;;;;;;;;6213619;28;20093;-86
2024/03/31 01:29:30;;;;;;;24.42;11.32;;;;;;;;;;6194458;28;20039;-85
2024/03/31 01:32:30;;;;;;;26.45;11.32;;;;;;;;;;6159752;28;20104;-86
2024/03/31 01:35:31;;;;;;;26.10;11.23;;;;;;;;;;6171247;28;20090;-86
2024/03/31 01:38:32;;;;;;;31.42;11.52;;;;;;;;;;6187229;28;20133;-85
2024/03/31 01:41:33;;;;;;;31.00;11.35;;;;;;;;;;6152830;28;20042;-85
2024/03/31 01:44:34;;;;;;;26.77;10.88;;;;;;;;;;6170474;28;20042;-86
2024/03/31 01:47:34;;;;;;;24.52;10.93;;;;;;;;;;6153683;28;20115;-85
2024/03/31 01:50:35;;;;;;;28.20;10.48;;;;;;;;;;6163771;28;20070;-87
2024/03/31 01:53:36;;;;;;;25.05;10.95;;;;;;;;;;6156743;28;20101;-85
2024/03/31 01:56:37;;;;;;;35.80;16.27;;;;;;;;;;6171158;28;20595;-85
2024/03/31 01:59:38;;;;;;;29.08;15.15;;;;;;;;;;6153209;28;20531;-86
2024/03/31 02:02:39;;;;;;;29.13;14.02;;;;;;;;;;6155473;28;20104;-85
2024/03/31 02:05:40;;;;;;;26.23;12.25;;;;;;;;;;6164078;28;20050;-86
2024/03/31 02:08:40;;;;;;;26.25;11.23;;;;;;;;;;6150460;28;20049;-87
2024/03/31 02:11:43;;;;;;;23.50;8.85;;;;;;;;;;6155109;28;20073;-86
2024/03/31 02:14:44;;;;;;;22.70;8.33;;;;;;;;;;6164082;28;20044;-87
2024/03/31 02:17:45;;;;;;;20.30;8.18;;;;;;;;;;6171461;28;21471;-86
2024/03/31 02:20:46;;;;;;;21.58;8.00;;;;;;;;;;6180897;28;20050;-86
2024/03/31 02:23:46;;;;;;;17.70;7.80;;;;;;;;;;6181979;28;20057;-86
2024/03/31 02:26:47;;;;;;;24.17;8.15;;;;;;;;;;6187825;28;20050;-86
2024/03/31 02:29:48;;;;;;;19.05;7.97;;;;;;;;;;6165766;28;20043;-87
2024/03/31 02:32:51;;;;;;;15.18;8.38;;;;;;;;;;6165475;28;20469;-86
2024/03/31 02:35:52;;;;;;;16.55;7.53;;;;;;;;;;6166091;28;20038;-86
2024/03/31 02:38:55;;;;;;;;;;;;;;;;;;6172552;28;20065;-86
2024/03/31 02:41:56;;;;;;;17.05;7.57;;;;;;;;;;6164446;28;19989;-87
2024/03/31 02:44:57;;;;;;;21.17;8.32;;;;;;;;;;6147657;28;20042;-86
2024/03/31 02:47:58;;;;;;;20.33;8.38;;;;;;;;;;6161114;28;20486;-86
2024/03/31 02:50:59;;;;;;;20.80;9.00;;;;;;;;;;6159813;28;20108;-86
2024/03/31 02:53:59;;;;;;;14.45;7.95;;;;;;;;;;6186972;28;20034;-86
2024/03/31 02:57:00;;;;;;;19.95;9.20;;;;;;;;;;6166530;28;20070;-86
2024/03/31 03:00:04;;;;;;;;;;;;;;;;;;6164733;28;20049;-87
2024/03/31 03:03:05;;;;;;;20.58;9.82;;;;;;;;;;6161089;28;20281;-86
2024/03/31 03:06:05;;;;;;;27.70;11.40;;;;;;;;;;6143372;28;20113;-86
2024/03/31 03:09:07;;;;;;;20.30;10.23;;;;;;;;;;6154870;28;20047;-86
2024/03/31 03:12:08;;;;;;;20.58;9.73;;;;;;;;;;6181858;28;20423;-87
2024/03/31 03:15:09;;;;;;;22.58;10.57;;;;;;;;;;6148419;28;20053;-88
2024/03/31 03:18:09;;;;;;;20.77;9.48;;;;;;;;;;6180238;28;20080;-86
2024/03/31 03:21:10;;;;;;;18.75;8.80;;;;;;;;;;6179070;28;20077;-86
2024/03/31 03:24:11;;;;;;;24.80;10.00;;;;;;;;;;6171146;28;20050;-86
2024/03/31 03:27:12;;;;;;;24.45;9.35;;;;;;;;;;6156158;28;20102;-87
2024/03/31 03:30:13;;;;;;;17.85;8.45;;;;;;;;;;6161000;28;20496;-86
2024/03/31 03:33:14;;;;;;;17.10;8.18;;;;;;;;;;6187821;28;20069;-86
2024/03/31 03:36:16;;;;;;;19.92;8.82;;;;;;;;;;6184745;28;20051;-87
2024/03/31 03:39:17;;;;;;;24.10;8.43;;;;;;;;;;6175231;28;20081;-86
2024/03/31 03:42:18;;;;;;;15.15;8.10;;;;;;;;;;6172362;28;20511;-86
2024/03/31 03:45:19;;;;;;;25.52;8.40;;;;;;;;;;6168551;28;20085;-86
2024/03/31 03:48:19;;;;;;;14.82;7.38;;;;;;;;;;6149157;28;20042;-87
2024/03/31 03:51:20;;;;;;;17.05;7.68;;;;;;;;;;6149091;28;20062;-86
2024/03/31 03:54:22;;;;;;;21.77;8.38;;;;;;;;;;6177907;28;20074;-86
2024/03/31 03:57:23;;;;;;;16.33;7.75;;;;;;;;;;6173284;28;20039;-86
2024/03/31 04:00:24;;;;;;;22.55;9.07;;;;;;;;;;6154032;28;20121;-87
2024/03/31 04:03:25;;;;;;;16.10;8.95;;;;;;;;;;6173578;28;20072;-86
2024/03/31 04:06:26;;;;;;;20.45;9.50;;;;;;;;;;6150107;28;20508;-86
2024/03/31 04:09:28;;;;;;;17.92;9.35;;;;;;;;;;6190677;28;20050;-87
2024/03/31 04:12:29;;;;;;;21.02;10.23;;;;;;;;;;6192435;28;20097;-87
2024/03/31 04:15:30;;;;;;;22.27;10.30;;;;;;;;;;6158500;28;20711;-86
2024/03/31 04:18:30;;;;;;;20.30;9.90;;;;;;;;;;6169048;28;20042;-87
2024/03/31 04:21:31;;;;;;;19.50;9.35;;;;;;;;;;6153171;28;20129;-87
2024/03/31 04:24:33;;;;;;;26.08;10.27;;;;;;;;;;6176076;28;20451;-87
2024/03/31 04:27:33;;;;;;;20.38;9.50;;;;;;;;;;6169688;28;20038;-87
2024/03/31 04:30:42;;;;;;;21.95;10.88;;;;;;;;;;6169950;28;20038;-87
2024/03/31 04:33:42;;;;;;;19.42;9.38;;;;;;;;;;6154951;28;20408;-86
2024/03/31 04:36:44;;;;;;;21.35;10.00;;;;;;;;;;6169498;28;20046;-87
2024/03/31 04:39:45;;;;;;;20.45;8.85;;;;;;;;;;6154731;28;20053;-86
2024/03/31 04:42:45;;;;;;;18.55;9.60;;;;;;;;;;6147797;28;20050;-88
2024/03/31 04:45:46;;;;;;;18.77;8.70;;;;;;;;;;6158967;28;20050;-87
2024/03/31 04:48:47;;;;;;;20.63;8.85;;;;;;;;;;6163034;28;20069;-86
2024/03/31 04:51:49;;;;;;;23.92;10.00;;;;;;;;;;6141832;28;20454;-87
2024/03/31 04:54:53;;;;;;;17.05;9.15;;;;;;;;;;6163973;28;20062;-87
2024/03/31 04:57:54;;;;;;;18.33;9.10;;;;;;;;;;6181044;28;20039;-87
2024/03/31 05:00:56;;;;;;;18.60;9.38;;;;;;;;;;6147105;28;20522;-87
2024/03/31 05:03:56;;;;;;;15.70;8.73;;;;;;;;;;6147536;28;20042;-88
2024/03/31 05:06:59;;;;;;;19.95;8.55;;;;;;;;;;6181910;28;20411;-87
2024/03/31 05:10:00;;;;;;;19.45;8.80;;;;;;;;;;6167810;28;20045;-87
2024/03/31 05:13:01;;;;;;;20.30;8.93;;;;;;;;;;6165677;28;20047;-87
2024/03/31 05:16:07;;;;;;;19.70;9.00;;;;;;;;;;6179891;28;20051;-87
2024/03/31 05:19:08;;;;;;;17.63;8.57;;;;;;;;;;6183594;28;20137;-87
2024/03/31 05:22:09;;;;;;;19.73;8.82;;;;;;;;;;6157347;28;20148;-87
2024/03/31 05:25:10;;;;;;;20.52;9.48;;;;;;;;;;6172290;28;20066;-87
2024/03/31 05:28:11;;;;;;;25.42;10.30;;;;;;;;;;6172011;28;20259;-87
2024/03/31 05:31:12;;;;;;;20.52;9.35;;;;;;;;;;6171256;28;20491;-86
2024/03/31 05:34:28;;;;;;;20.40;8.90;;;;;;;;;;6174291;28;20522;-87
2024/03/31 05:37:29;;;;;;;20.50;9.80;;;;;;;;;;6170459;28;20050;-86
2024/03/31 05:40:29;;;;;;;14.77;9.30;;;;;;;;;;6176654;28;20054;-86
2024/03/31 05:43:30;;;;;;;20.05;10.52;;;;;;;;;;6170176;28;20054;-86
2024/03/31 05:46:31;;;;;;;17.83;9.52;;;;;;;;;;6159387;28;20072;-86
2024/03/31 05:49:32;;;;;;;20.83;10.15;;;;;;;;;;6170247;28;20047;-86
2024/03/31 05:52:33;;;;;;;20.40;9.80;;;;;;;;;;6177583;28;20038;-86
2024/03/31 05:55:34;;;;;;;17.60;9.95;;;;;;;;;;6145940;28;20038;-86
2024/03/31 05:58:36;;;;;;;21.63;10.23;;;;;;;;;;6169089;28;20140;-86
2024/03/31 06:01:37;;;;;;;19.77;9.93;;;;;;;;;;6168899;28;20041;-86
2024/03/31 06:04:38;;;;;;;81.30;30.38;;;;;;;;;;6159557;28;20046;-86
2024/03/31 06:07:39;;;;;;;24.98;11.98;;;;;;;;;;6151903;28;20455;-86
2024/03/31 06:10:40;;;;;;;23.02;11.10;;;;;;;;;;6160968;28;20894;-86
2024/03/31 06:13:41;;;;;;;24.10;11.88;;;;;;;;;;6161744;28;20046;-86
2024/03/31 06:16:42;;;;;;;23.05;11.68;;;;;;;;;;6144886;28;20042;-87
2024/03/31 06:19:43;;;;;;;21.17;11.45;;;;;;;;;;6163552;28;20042;-87
2024/03/31 06:22:46;;;;;;;26.05;13.98;;;;;;;;;;6145206;28;20117;-86
2024/03/31 06:25:57;;;;;;;36.08;22.17;;;;;;;;;;6162266;28;20112;-86
2024/03/31 06:28:58;;;;;;;31.45;16.85;;;;;;;;;;6152213;28;20050;-87
2024/03/31 06:32:00;;;;;;;30.50;14.82;;;;;;;;;;6164365;28;20050;-86
2024/03/31 06:35:05;;;;;;;26.48;14.45;;;;;;;;;;6157753;28;20070;-87
2024/03/31 06:38:08;;;;;;;233.90;80.03;;;;;;;;;;6145870;28;20087;-86
2024/03/31 06:41:08;;;;;;;71.30;29.08;;;;;;;;;;6164863;28;20046;-87
2024/03/31 06:44:09;;;;;;;43.10;18.58;;;;;;;;;;6165838;28;20076;-86
2024/03/31 06:47:11;;;;;;;18.95;10.93;;;;;;;;;;6158950;28;20050;-86
2024/03/31 06:50:12;;;;;;;48.53;20.75;;;;;;;;;;6161924;28;20136;-86
2024/03/31 06:53:12;;;;;;;42.05;19.52;;;;;;;;;;6191833;28;20100;-86
2024/03/31 06:56:13;;;;;;;1758.40;600.85;;;;;;;;;;6192095;28;20050;-89
2024/03/31 06:59:14;;;;;;;49.90;20.65;;;;;;;;;;6174295;28;20038;-86
2024/03/31 07:02:15;;;;;;;24.08;13.45;;;;;;;;;;6157978;28;20060;-86
2024/03/31 07:05:16;;;;;;;141.00;59.63;;;;;;;;;;6162879;28;20063;-87
2024/03/31 07:08:17;;;;;;;49.30;24.45;;;;;;;;;;6173258;28;20091;-86
2024/03/31 07:11:20;;;;;;;58.38;26.45;;;;;;;;;;6174309;28;20076;-86
2024/03/31 07:14:21;;;;;;;132.85;46.78;;;;;;;;;;6159994;28;20053;-87
2024/03/31 07:17:24;;;;;;;;;;;;;;;;;;6156542;28;20046;-88
2024/03/31 07:20:25;;;;;;;37.60;16.85;;;;;;;;;;6198642;28;19945;-87
2024/03/31 07:23:26;;;;;;;20.90;12.48;;;;;;;;;;6164683;28;20054;-86
2024/03/31 07:26:26;;;;;;;27.00;18.02;;;;;;;;;;6164223;28;20038;-85
2024/03/31 07:29:28;;;;;;;23.17;14.38;;;;;;;;;;6148303;28;20038;-85
2024/03/31 07:32:28;;;;;;;26.90;14.07;;;;;;;;;;6166986;28;20056;-87
2024/03/31 07:35:30;;;;;;;25.00;12.80;;;;;;;;;;6167402;28;20089;-85
2024/03/31 07:38:30;;;;;;;22.90;11.60;;;;;;;;;;6145943;28;20110;-85
2024/03/31 07:41:31;;;;;;;23.98;12.18;;;;;;;;;;6164343;28;20057;-85
2024/03/31 07:44:32;;;;;;;18.90;9.32;;;;;;;;;;6156691;28;20065;-84
2024/03/31 07:47:33;;;;;;;16.75;9.82;;;;;;;;;;6161067;28;20057;-85
2024/03/31 07:50:34;;;;;;;20.00;10.50;;;;;;;;;;6177785;28;20210;-85
2024/03/31 07:53:34;;;;;;;20.63;10.57;;;;;;;;;;6175974;28;20046;-84
2024/03/31 07:56:35;;;;;;;20.52;9.68;;;;;;;;;;6154684;28;20426;-85
2024/03/31 07:59:36;;;;;;;20.88;10.77;;;;;;;;;;6155268;28;20076;-84
2024/03/31 08:02:36;;;;;;;14.55;9.18;;;;;;;;;;6158261;28;20043;-88
2024/03/31 08:05:37;;;;;;;12.82;7.03;;;;;;;;;;6160847;28;20042;-88
2024/03/31 08:08:38;;;;;;;8.73;5.53;;;;;;;;;;6169556;28;20370;-89
2024/03/31 08:11:39;;;;;;;18.52;10.07;;;;;;;;;;6165220;28;20123;-88
2024/03/31 08:14:39;;;;;;;23.15;10.57;;;;;;;;;;6168760;28;20039;-88
2024/03/31 08:17:43;;;;;;;15.93;8.15;;;;;;;;;;6142384;28;20124;-90
2024/03/31 08:20:48;;;;;;;15.05;5.97;;;;;;;;;;6137811;28;20057;-89
2024/03/31 08:23:50;;;;;;;19.88;9.93;;;;;;;;;;6148533;28;20042;-90
2024/03/31 08:26:52;;;;;;;11.25;5.03;;;;;;;;;;6156038;28;20078;-87
2024/03/31 08:29:54;;;;;;;8.57;5.05;;;;;;;;;;6179655;28;20085;-87
2024/03/31 08:32:55;;;;;;;12.93;6.50;;;;;;;;;;6183248;28;20451;-88
2024/03/31 08:35:56;;;;;;;14.57;5.25;;;;;;;;;;6145041;28;20054;-87
2024/03/31 08:38:57;;;;;;;21.98;7.85;;;;;;;;;;6160780;28;20046;-87
2024/03/31 08:42:01;;;;;;;9.27;4.40;;;;;;;;;;6168781;28;20209;-88
2024/03/31 08:45:04;;;;;;;14.27;7.90;;;;;;;;;;6163640;28;20047;-88
2024/03/31 08:48:07;;;;;;;10.35;5.45;;;;;;;;;;6153652;28;20096;-90
2024/03/31 08:51:08;;;;;;;9.40;4.22;;;;;;;;;;6147253;28;20128;-89
2024/03/31 08:54:11;;;;;;;12.27;4.28;;;;;;;;;;6160820;28;20046;-88
2024/03/31 08:57:12;;;;;;;8.80;3.90;;;;;;;;;;6162483;28;20046;-90
2024/03/31 09:00:13;;;;;;;12.52;5.28;;;;;;;;;;6158650;28;20280;-88
2024/03/31 09:03:14;;;;;;;10.77;3.80;;;;;;;;;;6142852;28;20074;-88
2024/03/31 09:06:15;;;;;;;13.20;7.05;;;;;;;;;;6150951;28;20416;-90
2024/03/31 09:09:22;;;;;;;11.40;4.55;;;;;;;;;;6212145;28;20090;-89
2024/03/31 09:12:23;;;;;;;12.85;7.13;;;;;;;;;;6202065;28;20068;-89
2024/03/31 09:15:24;;;;;;;14.27;5.75;;;;;;;;;;6141523;28;20363;-88
2024/03/31 09:18:25;;;;;;;12.93;5.18;;;;;;;;;;6147342;28;20045;-87
2024/03/31 09:21:26;;;;;;;8.05;6.05;;;;;;;;;;6168959;28;20343;-88
2024/03/31 09:24:28;;;;;;;11.13;6.25;;;;;;;;;;6154241;28;20105;-87
2024/03/31 09:27:31;;;;;;;13.48;4.88;;;;;;;;;;6161946;28;20475;-89
2024/03/31 09:30:31;;;;;;;8.13;2.97;;;;;;;;;;6139316;28;20304;-89
2024/03/31 09:33:38;;;;;;;6.97;2.60;;;;;;;;;;6163031;28;20051;-88
2024/03/31 09:36:39;;;;;;;11.15;2.88;;;;;;;;;;6166907;28;20129;-89
2024/03/31 09:39:40;;;;;;;14.07;5.28;;;;;;;;;;6149201;28;20125;-88
2024/03/31 09:42:43;;;;;;;14.10;5.65;;;;;;;;;;6175899;28;20058;-90
2024/03/31 09:45:45;;;;;;;;;;;;;;;;;;6175647;28;20178;-88
2024/03/31 09:48:51;;;;;;;9.00;2.55;;;;;;;;;;6163029;28;19926;-90
2024/03/31 09:51:55;;;;;;;10.65;2.65;;;;;;;;;;6175788;28;20054;-90
2024/03/31 09:54:58;;;;;;;11.23;3.08;;;;;;;;;;6163055;28;20057;-89
2024/03/31 09:58:03;;;;;;;7.00;3.40;;;;;;;;;;6155355;28;20049;-90
2024/03/31 10:01:06;;;;;;;9.90;3.13;;;;;;;;;;6144905;28;20096;-90
2024/03/31 10:04:16;;;;;;;9.18;2.75;;;;;;;;;;6156187;28;20416;-90
2024/03/31 10:07:18;;;;;;;11.40;2.85;;;;;;;;;;6157151;28;20056;-90
2024/03/31 10:10:20;;;;;;;11.25;2.75;;;;;;;;;;6145406;28;20500;-88
2024/03/31 10:13:24;;;;;;;6.82;2.13;;;;;;;;;;6156847;28;20478;-89
2024/03/31 10:16:25;;;;;;;8.75;2.60;;;;;;;;;;6146619;28;20038;-88
2024/03/31 10:19:30;;;;;;;8.32;3.05;;;;;;;;;;6150326;28;20444;-88
2024/03/31 10:22:31;;;;;;;9.82;2.35;;;;;;;;;;6147951;28;20046;-88
2024/03/31 10:25:33;;;;;;;9.07;2.30;;;;;;;;;;6158868;28;20061;-86
2024/03/31 10:28:35;;;;;;;6.03;2.40;;;;;;;;;;6162552;28;20616;-87
2024/03/31 10:31:35;;;;;;;11.68;2.40;;;;;;;;;;6163688;28;20058;-87
2024/03/31 10:34:39;;;;;;;9.07;2.55;;;;;;;;;;6162511;28;20057;-86
2024/03/31 10:37:40;;;;;;;9.25;2.58;;;;;;;;;;6151047;28;20034;-87
2024/03/31 10:40:41;;;;;;;10.80;2.55;;;;;;;;;;6152667;28;20054;-87
2024/03/31 10:43:42;;;;;;;8.13;2.13;;;;;;;;;;6164271;28;20562;-87
2024/03/31 10:46:46;;;;;;;9.23;2.33;;;;;;;;;;6150841;28;20629;-87
2024/03/31 10:49:58;;;;;;;10.25;2.67;;;;;;;;;;6178298;28;20465;-87
2024/03/31 10:52:59;;;;;;;9.43;3.10;;;;;;;;;;6165223;28;20046;-87
2024/03/31 10:56:03;;;;;;;7.57;2.85;;;;;;;;;;6201810;28;20079;-87
2024/03/31 10:59:07;;;;;;;10.55;2.30;;;;;;;;;;6214319;28;20037;-87
2024/03/31 11:02:20;;;;;;;8.32;2.42;;;;;;;;;;6163752;28;20526;-87
2024/03/31 11:05:21;;;;;;;9.20;4.45;;;;;;;;;;6181240;28;20050;-87
2024/03/31 11:08:22;;;;;;;12.60;4.50;;;;;;;;;;6182897;28;20050;-87
2024/03/31 11:11:23;;;;;;;9.68;2.97;;;;;;;;;;6177127;28;20534;-88
2024/03/31 11:14:25;;;;;;;12.27;4.43;;;;;;;;;;6159697;28;20352;-87
2024/03/31 11:17:26;;;;;;;34.92;20.50;;;;;;;;;;6158430;28;20064;-87
2024/03/31 11:20:27;;;;;;;7.95;2.60;;;;;;;;;;6159307;28;20050;-87
2024/03/31 11:23:30;;;;;;;23.08;12.00;;;;;;;;;;6151762;28;20046;-87
2024/03/31 11:26:30;;;;;;;11.55;4.78;;;;;;;;;;6174145;28;20082;-87
2024/03/31 11:29:34;;;;;;;7.60;2.45;;;;;;;;;;6158223;28;20048;-87
2024/03/31 11:32:38;;;;;;;8.75;2.60;;;;;;;;;;6148960;28;20048;-87
2024/03/31 11:35:39;;;;;;;12.95;5.10;;;;;;;;;;6181345;28;20042;-87
2024/03/31 11:38:40;;;;;;;15.27;4.55;;;;;;;;;;6146219;28;20042;-87
2024/03/31 11:41:41;;;;;;;22.88;8.60;;;;;;;;;;6160923;28;20053;-88
2024/03/31 11:44:42;;;;;;;29.02;7.75;;;;;;;;;;6141306;28;20046;-87
2024/03/31 11:47:43;;;;;;;12.75;2.13;;;;;;;;;;6169362;28;20057;-88
2024/03/31 11:50:44;;;;;;;15.15;4.45;;;;;;;;;;6171147;28;20046;-88
2024/03/31 11:53:45;;;;;;;12.38;3.15;;;;;;;;;;6165425;28;20048;-89
2024/03/31 11:56:46;;;;;;;27.02;9.90;;;;;;;;;;6150265;28;20046;-90
2024/03/31 11:59:55;;;;;;;10.80;2.30;;;;;;;;;;6158759;28;20062;-89
2024/03/31 12:03:05;;;;;;;13.05;2.30;;;;;;;;;;6165033;28;20046;-90
2024/03/31 12:06:06;;;;;;;12.93;4.00;;;;;;;;;;6178845;28;20076;-89
2024/03/31 12:09:08;;;;;;;25.45;8.27;;;;;;;;;;6185855;28;20042;-88
2024/03/31 12:12:09;;;;;;;18.95;6.28;;;;;;;;;;6189683;28;20081;-88
2024/03/31 12:15:12;;;;;;;8.82;1.85;;;;;;;;;;6180961;28;20558;-89
2024/03/31 12:18:13;;;;;;;14.57;5.07;;;;;;;;;;6177826;28;20146;-88
2024/03/31 12:21:23;;;;;;;20.35;6.70;;;;;;;;;;6175045;28;20070;-88
2024/03/31 12:24:24;;;;;;;15.77;5.43;;;;;;;;;;6153951;28;20133;-89
2024/03/31 12:27:26;;;;;;;14.50;3.42;;;;;;;;;;6171559;28;20056;-89
2024/03/31 12:30:37;;;;;;;15.38;3.45;;;;;;;;;;6168779;28;20111;-87
2024/03/31 12:33:38;;;;;;;15.30;4.35;;;;;;;;;;6181679;28;20050;-87
2024/03/31 12:36:40;;;;;;;20.15;6.15;;;;;;;;;;6177066;28;20073;-88
2024/03/31 12:39:41;;;;;;;8.90;2.53;;;;;;;;;;6181805;28;20053;-88
2024/03/31 12:42:42;;;;;;;22.52;7.03;;;;;;;;;;6199137;28;20034;-90
2024/03/31 12:45:44;;;;;;;12.65;2.92;;;;;;;;;;6169067;28;20042;-89
2024/03/31 12:48:45;;;;;;;21.05;5.97;;;;;;;;;;6149711;28;20399;-85
2024/03/31 12:51:53;;;;;;;14.05;4.53;;;;;;;;;;6180534;28;20141;-86
2024/03/31 12:54:54;;;;;;;15.93;4.55;;;;;;;;;;6188042;28;20042;-88
2024/03/31 12:57:56;;;;;;;12.77;3.22;;;;;;;;;;6184982;28;20054;-88
2024/03/31 13:00:58;;;;;;;10.80;2.53;;;;;;;;;;6150729;28;20039;-88
2024/03/31 13:03:59;;;;;;;19.87;7.17;;;;;;;;;;6169540;28;20042;-88
2024/03/31 13:07:00;;;;;;;8.30;2.53;;;;;;;;;;6165301;28;20073;-88
2024/03/31 13:10:02;;;;;;;15.10;3.90;;;;;;;;;;6151878;28;20049;-88
2024/03/31 13:13:05;;;;;;;6.35;1.77;;;;;;;;;;6164453;28;20050;-89
2024/03/31 13:16:06;;;;;;;13.68;2.80;;;;;;;;;;6149626;28;20407;-87
2024/03/31 13:19:07;;;;;;;18.02;4.38;;;;;;;;;;6169592;28;20042;-88
2024/03/31 13:22:08;;;;;;;9.73;2.15;;;;;;;;;;6171748;28;20100;-88
2024/03/31 13:25:09;;;;;;;9.02;2.10;;;;;;;;;;6189117;28;20064;-87
2024/03/31 13:28:12;;;;;;;13.00;3.92;;;;;;;;;;6166186;28;20042;-86
2024/03/31 13:31:12;;;;;;;14.23;2.78;;;;;;;;;;6170494;28;20418;-87
2024/03/31 13:34:13;;;;;;;13.55;3.10;;;;;;;;;;6166293;28;20066;-87
2024/03/31 13:37:14;;;;;;;11.77;2.85;;;;;;;;;;6147662;28;20046;-87
2024/03/31 13:40:16;;;;;;;15.23;3.28;;;;;;;;;;6154586;28;20050;-87
2024/03/31 13:43:17;;;;;;;15.43;2.47;;;;;;;;;;6152418;28;20049;-88
2024/03/31 13:46:18;;;;;;;13.18;2.90;;;;;;;;;;6166063;28;20054;-87
2024/03/31 13:49:18;;;;;;;12.13;2.42;;;;;;;;;;6165632;28;20050;-87
2024/03/31 13:52:19;;;;;;;9.45;1.52;;;;;;;;;;6163538;28;20034;-87
2024/03/31 13:55:20;;;;;;;8.05;1.80;;;;;;;;;;6185960;28;20050;-87
2024/03/31 13:58:21;;;;;;;12.23;2.85;;;;;;;;;;6154167;28;20057;-87
2024/03/31 14:01:22;;;;;;;8.73;1.38;;;;;;;;;;6164191;28;20073;-88
2024/03/31 14:04:22;;;;;;;14.10;1.90;;;;;;;;;;6155949;28;20041;-87
2024/03/31 14:07:23;;;;;;;12.02;3.05;;;;;;;;;;6165669;28;20046;-88
2024/03/31 14:10:24;;;;;;;9.80;1.80;;;;;;;;;;6181919;28;20478;-88
2024/03/31 14:13:25;;;;;;;10.82;2.33;;;;;;;;;;6170979;28;20471;-88
2024/03/31 14:16:26;;;;;;;11.60;1.98;;;;;;;;;;6167707;28;20046;-88
2024/03/31 14:19:27;;;;;;;16.00;2.47;;;;;;;;;;6169083;28;20097;-88
2024/03/31 14:22:28;;;;;;;9.70;2.20;;;;;;;;;;6165826;28;20050;-88
2024/03/31 14:25:32;;;;;;;10.50;2.25;;;;;;;;;;6173125;28;20053;-88
2024/03/31 14:28:33;;;;;;;7.70;1.60;;;;;;;;;;6179258;28;20033;-88
2024/03/31 14:31:34;;;;;;;11.55;2.28;;;;;;;;;;6201325;28;20037;-90
2024/03/31 14:34:34;;;;;;;14.98;2.58;;;;;;;;;;6174007;28;20046;-90
2024/03/31 14:37:35;;;;;;;12.43;1.80;;;;;;;;;;6169849;28;20054;-88
2024/03/31 14:40:36;;;;;;;11.77;2.00;;;;;;;;;;6181480;28;20129;-89
2024/03/31 14:43:37;;;;;;;15.60;2.22;;;;;;;;;;6145207;28;20054;-90
2024/03/31 14:46:37;;;;;;;12.02;1.98;;;;;;;;;;6162210;28;20093;-88
2024/03/31 14:49:40;;;;;;;19.88;2.75;;;;;;;;;;6165402;28;20077;-88
2024/03/31 14:52:41;;;;;;;8.68;1.70;;;;;;;;;;6149312;28;20046;-87
2024/03/31 14:55:42;;;;;;;12.68;2.13;;;;;;;;;;6161071;28;21121;-88
2024/03/31 14:58:44;;;;;;;10.45;1.77;;;;;;;;;;6152396;28;20503;-89
2024/03/31 15:01:44;;;;;;;11.77;1.80;;;;;;;;;;6156590;28;20589;-88
2024/03/31 15:04:45;;;;;;;11.95;1.92;;;;;;;;;;6162187;28;20038;-87
2024/03/31 15:07:46;;;;;;;10.82;2.08;;;;;;;;;;6163869;28;20038;-87
2024/03/31 15:10:46;;;;;;;14.10;2.08;;;;;;;;;;6163318;28;20042;-88
2024/03/31 15:13:47;;;;;;;11.88;2.47;;;;;;;;;;6144892;28;20089;-88
2024/03/31 15:16:48;;;;;;;15.50;2.65;;;;;;;;;;6176398;28;20582;-87
2024/03/31 15:19:49;;;;;;;10.75;1.77;;;;;;;;;;6175080;28;20046;-88
2024/03/31 15:22:49;;;;;;;13.27;2.67;;;;;;;;;;6184489;28;20056;-87
2024/03/31 15:25:50;;;;;;;9.60;1.60;;;;;;;;;;6207533;28;20061;-88
2024/03/31 15:28:51;;;;;;;20.23;2.03;;;;;;;;;;6188583;28;20157;-89
2024/03/31 15:31:52;;;;;;;11.00;2.22;;;;;;;;;;6171583;28;20050;-88
2024/03/31 15:34:53;;;;;;;9.88;1.90;;;;;;;;;;6172151;28;20053;-89
2024/03/31 15:37:54;;;;;;;10.60;2.28;;;;;;;;;;6166344;28;20134;-90
2024/03/31 15:40:54;;;;;;;16.52;2.20;;;;;;;;;;6169539;28;20500;-90
2024/03/31 15:43:56;;;;;;;14.25;2.00;;;;;;;;;;6163825;28;20535;-90
2024/03/31 15:46:56;;;;;;;11.52;2.20;;;;;;;;;;6150390;28;20054;-90
2024/03/31 15:49:58;;;;;;;11.57;2.83;;;;;;;;;;6151762;28;20125;-91
2024/03/31 15:52:59;;;;;;;15.50;2.20;;;;;;;;;;6160258;28;20384;-90
2024/03/31 15:56:00;;;;;;;13.95;2.85;;;;;;;;;;6168344;28;20078;-89
2024/03/31 15:59:01;;;;;;;19.35;4.22;;;;;;;;;;6167273;28;20124;-89
2024/03/31 16:02:01;;;;;;;21.65;4.38;;;;;;;;;;6157532;28;20057;-89
2024/03/31 16:05:03;;;;;;;20.35;6.22;;;;;;;;;;6189096;28;20173;-89
2024/03/31 16:08:05;;;;;;;23.50;6.40;;;;;;;;;;6172584;28;20057;-88
2024/03/31 16:11:08;;;;;;;21.52;4.95;;;;;;;;;;6149781;28;20086;-87
2024/03/31 16:14:08;;;;;;;20.10;5.60;;;;;;;;;;6173759;28;20070;-88
2024/03/31 16:17:10;;;;;;;19.30;3.60;;;;;;;;;;6177244;28;20038;-86
2024/03/31 16:20:10;;;;;;;8.55;2.28;;;;;;;;;;6170647;28;20124;-85
2024/03/31 16:23:11;;;;;;;21.67;5.00;;;;;;;;;;6177676;28;20053;-85
2024/03/31 16:26:12;;;;;;;17.92;4.15;;;;;;;;;;6153825;28;20476;-86
2024/03/31 16:29:13;;;;;;;12.88;2.85;;;;;;;;;;6164342;28;20129;-87
2024/03/31 16:32:13;;;;;;;13.43;2.65;;;;;;;;;;6163223;28;20178;-87
2024/03/31 16:35:15;;;;;;;27.85;9.73;;;;;;;;;;6154158;28;20049;-86
2024/03/31 16:38:16;;;;;;;18.40;5.50;;;;;;;;;;6185387;28;20415;-87
2024/03/31 16:41:17;;;;;;;17.92;3.75;;;;;;;;;;6170137;28;20069;-87
2024/03/31 16:44:18;;;;;;;16.40;3.60;;;;;;;;;;6167926;28;20085;-88
2024/03/31 16:47:20;;;;;;;15.10;3.72;;;;;;;;;;6153115;28;20100;-87
2024/03/31 16:50:20;;;;;;;19.85;6.63;;;;;;;;;;6185786;28;20138;-88
2024/03/31 16:53:21;;;;;;;26.60;7.93;;;;;;;;;;6152069;28;20466;-87
2024/03/31 16:56:22;;;;;;;24.63;8.13;;;;;;;;;;6163478;28;20100;-88
2024/03/31 16:59:26;;;;;;;32.03;11.82;;;;;;;;;;6170440;28;20222;-88
2024/03/31 17:02:29;;;;;;;12.23;4.13;;;;;;;;;;6182189;28;20406;-87
2024/03/31 17:05:33;;;;;;;20.38;5.32;;;;;;;;;;6184838;28;20740;-86
2024/03/31 17:08:34;;;;;;;20.90;6.00;;;;;;;;;;6170113;28;20096;-86
2024/03/31 17:11:34;;;;;;;20.70;5.65;;;;;;;;;;6175509;28;20488;-87
2024/03/31 17:14:35;;;;;;;15.13;3.78;;;;;;;;;;6162635;28;20507;-86
2024/03/31 17:17:37;;;;;;;12.45;4.07;;;;;;;;;;6169338;28;20056;-86
2024/03/31 17:20:38;;;;;;;21.00;6.30;;;;;;;;;;6161922;28;20070;-86
2024/03/31 17:23:39;;;;;;;15.68;3.53;;;;;;;;;;6179791;28;20051;-87
2024/03/31 17:26:40;;;;;;;19.65;7.25;;;;;;;;;;6158240;28;20034;-86
2024/03/31 17:29:40;;;;;;;53.95;21.80;;;;;;;;;;6189292;28;20045;-87
2024/03/31 17:32:41;;;;;;;18.90;4.97;;;;;;;;;;6150039;28;20504;-86
2024/03/31 17:35:52;;;;;;;18.67;6.60;;;;;;;;;;6171702;28;20128;-87
2024/03/31 17:38:52;;;;;;;16.40;4.13;;;;;;;;;;6156615;28;20081;-86
2024/03/31 17:41:53;;;;;;;19.25;3.58;;;;;;;;;;6167414;28;20552;-85
2024/03/31 17:44:54;;;;;;;18.90;5.65;;;;;;;;;;6168399;28;20507;-85
2024/03/31 17:47:55;;;;;;;23.02;6.03;;;;;;;;;;6165621;28;20050;-85
2024/03/31 17:50:55;;;;;;;21.38;5.78;;;;;;;;;;6168072;28;20050;-86